createdAt,value
2022-09-05T00:05:20.381Z,99.90
2022-09-05T00:11:41.298Z,99.90
2022-09-05T00:16:41.398Z,99.90
2022-09-05T00:24:28.080Z,99.90
2022-09-05T00:28:02.085Z,99.90
2022-09-05T00:33:34.594Z,99.90
2022-09-05T00:39:04.804Z,99.90
2022-09-05T00:44:30.328Z,99.90
2022-09-05T00:50:00.129Z,99.90
2022-09-05T00:55:41.604Z,99.90
2022-09-05T01:01:20.501Z,99.90
2022-09-05T01:06:38.626Z,99.90
2022-09-05T01:12:26.042Z,99.90
2022-09-05T01:17:59.461Z,99.90
2022-09-05T01:23:31.678Z,99.90
2022-09-05T01:29:16.521Z,99.90
2022-09-05T01:34:44.806Z,99.90
2022-09-05T01:40:22.019Z,99.90
2022-09-05T01:46:10.216Z,99.90
2022-09-05T01:51:48.658Z,99.90
2022-09-05T02:03:10.976Z,99.90
2022-09-05T02:08:42.673Z,99.90
2022-09-05T02:14:10.570Z,99.90
2022-09-05T02:19:36.998Z,99.90
2022-09-05T02:25:30.600Z,99.90
2022-09-05T02:30:50.352Z,99.90
2022-09-05T02:36:06.009Z,99.90
2022-09-05T02:45:19.571Z,99.90
2022-09-05T02:47:24.375Z,99.90
2022-09-05T02:57:27.015Z,99.90
2022-09-05T02:58:53.566Z,99.90
2022-09-05T03:04:34.791Z,99.90
2022-09-05T03:10:03.425Z,99.90
2022-09-05T03:15:53.251Z,99.90
2022-09-05T03:21:52.603Z,99.90
2022-09-05T03:27:29.172Z,99.90
2022-09-05T03:33:25.181Z,99.90
2022-09-05T03:39:02.990Z,99.90
2022-09-05T03:44:51.223Z,99.90
2022-09-05T03:57:06.847Z,99.90
2022-09-05T03:57:21.026Z,99.90
2022-09-05T04:03:21.595Z,99.90
2022-09-05T04:08:19.034Z,99.90
2022-09-05T04:13:07.769Z,99.90
2022-09-05T04:18:39.770Z,99.90
2022-09-05T04:24:05.706Z,99.90
2022-09-05T04:29:31.222Z,99.90
2022-09-05T04:35:05.997Z,99.90
2022-09-05T04:40:38.699Z,99.90
2022-09-05T04:46:04.376Z,99.90
2022-09-05T04:51:47.472Z,99.90
2022-09-05T04:57:14.757Z,99.90
2022-09-05T05:06:12.919Z,99.90
2022-09-05T05:08:15.307Z,99.90
2022-09-05T05:18:01.652Z,99.90
2022-09-05T05:19:29.753Z,99.90
2022-09-05T05:24:55.436Z,99.90
2022-09-05T05:30:33.548Z,99.90
2022-09-05T05:35:59.060Z,99.90
2022-09-05T05:41:27.251Z,99.90
2022-09-05T05:47:10.730Z,99.90
2022-09-05T05:52:42.082Z,99.90
2022-09-05T05:58:25.102Z,99.90
2022-09-05T06:04:16.337Z,99.90
2022-09-05T06:14:48.574Z,99.90
2022-09-05T06:16:02.801Z,99.90
2022-09-05T06:22:10.021Z,99.90
2022-09-05T06:27:10.800Z,99.90
2022-09-05T06:32:56.655Z,99.90
2022-09-05T06:38:30.192Z,99.90
2022-09-05T06:44:23.938Z,99.90
2022-09-05T06:50:26.979Z,99.90
2022-09-05T06:55:47.533Z,99.90
2022-09-05T07:01:13.283Z,98.50
2022-09-05T07:07:01.679Z,96.00
2022-09-05T07:12:30.106Z,93.00
2022-09-05T07:18:10.127Z,92.00
2022-09-05T07:24:06.332Z,89.70
2022-09-05T07:28:57.355Z,85.50
2022-09-05T07:34:33.218Z,82.70
2022-09-05T07:40:11.253Z,79.80
2022-09-05T07:45:30.553Z,80.10
2022-09-05T07:56:50.385Z,76.50
2022-09-05T07:57:20.758Z,74.30
2022-09-05T08:02:14.172Z,71.20
2022-09-05T08:07:49.351Z,70.90
2022-09-05T08:13:24.529Z,67.30
2022-09-05T08:18:42.955Z,65.50
2022-09-05T08:24:14.947Z,65.80
2022-09-05T08:29:46.656Z,66.50
2022-09-05T08:35:28.570Z,60.80
2022-09-05T08:41:12.195Z,59.40
2022-09-05T08:46:56.405Z,58.90
2022-09-05T08:52:48.370Z,57.90
2022-09-05T08:58:26.612Z,57.20
2022-09-05T09:04:04.582Z,55.90
2022-09-05T09:09:50.136Z,56.70
2022-09-05T09:15:35.260Z,51.80
2022-09-05T09:21:26.734Z,50.20
2022-09-05T09:27:01.938Z,49.40
2022-09-05T09:32:25.664Z,47.10
2022-09-05T09:38:15.349Z,48.30
2022-09-05T09:44:15.901Z,47.40
2022-09-05T09:50:18.106Z,44.80
2022-09-05T09:55:49.522Z,46.90
2022-09-05T10:01:36.164Z,45.80
2022-09-05T10:10:51.337Z,43.90
2022-09-05T10:13:08.384Z,43.60
2022-09-05T10:18:25.269Z,44.60
2022-09-05T10:24:07.720Z,43.00
2022-09-05T10:29:50.396Z,43.50
2022-09-05T10:35:34.555Z,44.10
2022-09-05T10:41:22.572Z,44.50
2022-09-05T10:47:06.448Z,45.60
2022-09-05T10:52:54.761Z,42.80
2022-09-05T11:00:54.437Z,44.00
2022-09-05T11:04:05.697Z,43.10
2022-09-05T11:09:43.361Z,43.60
2022-09-05T11:15:12.686Z,45.00
2022-09-05T11:21:08.071Z,43.40
2022-09-05T11:27:23.851Z,41.50
2022-09-05T11:38:13.187Z,43.50
2022-09-05T11:40:02.214Z,42.70
2022-09-05T11:43:47.226Z,42.60
2022-09-05T11:49:37.375Z,43.80
2022-09-05T11:55:37.298Z,43.20
2022-09-05T12:01:41.932Z,43.90
2022-09-05T12:07:30.324Z,42.60
2022-09-05T12:13:15.262Z,44.80
2022-09-05T12:18:46.864Z,43.20
2022-09-05T12:25:26.352Z,43.40
2022-09-05T12:29:54.230Z,43.10
2022-09-05T12:46:54.788Z,44.90
2022-09-05T13:02:57.873Z,45.40
2022-09-05T13:04:17.381Z,45.80
2022-09-05T13:10:16.735Z,46.50
2022-09-05T13:15:23.343Z,47.30
2022-09-05T13:21:13.429Z,47.90
2022-09-05T13:26:40.303Z,46.50
2022-09-05T13:38:06.303Z,49.50
2022-09-05T13:38:14.750Z,49.00
2022-09-05T13:43:18.996Z,51.00
2022-09-05T13:54:39.704Z,50.70
2022-09-05T14:00:26.778Z,50.10
2022-09-05T14:05:42.167Z,50.60
2022-09-05T14:11:32.473Z,51.80
2022-09-05T14:22:51.344Z,51.10
2022-09-05T14:28:17.132Z,51.40
2022-09-05T14:37:49.994Z,51.40
2022-09-05T14:39:20.583Z,53.50
2022-09-05T14:44:41.635Z,53.50
2022-09-05T14:50:06.639Z,53.40
2022-09-05T14:55:38.118Z,54.30
2022-09-05T15:02:57.272Z,53.90
2022-09-05T15:06:28.049Z,55.60
2022-09-05T15:12:23.842Z,55.70
2022-09-05T15:16:49.011Z,56.20
2022-09-05T15:21:54.457Z,55.20
2022-09-05T15:27:06.619Z,55.70
2022-09-05T15:32:23.251Z,55.60
2022-09-05T15:37:40.985Z,55.60
2022-09-05T15:42:51.517Z,55.90
2022-09-05T15:48:26.340Z,56.30
2022-09-05T15:53:42.649Z,56.80
2022-09-05T15:58:56.879Z,57.10
2022-09-05T16:06:56.576Z,57.30
2022-09-05T16:10:46.391Z,57.90
2022-09-05T16:15:55.277Z,58.10
2022-09-05T16:23:32.674Z,58.60
2022-09-05T16:25:34.891Z,59.50
2022-09-05T16:30:41.388Z,60.80
2022-09-05T16:35:52.391Z,60.80
2022-09-05T16:41:06.566Z,61.20
2022-09-05T16:46:28.497Z,60.00
2022-09-05T16:51:40.959Z,60.70
2022-09-05T16:57:03.064Z,61.40
2022-09-05T17:02:16.592Z,62.20
2022-09-05T17:07:45.071Z,64.40
2022-09-05T17:13:01.256Z,65.90
2022-09-05T17:18:25.003Z,67.00
2022-09-05T17:29:19.599Z,68.70
2022-09-05T17:29:31.935Z,70.30
2022-09-05T17:34:20.311Z,71.70
2022-09-05T17:39:39.911Z,73.00
2022-09-05T17:45:14.276Z,74.10
2022-09-05T17:50:22.771Z,75.40
2022-09-05T17:55:47.801Z,76.10
2022-09-05T18:00:57.688Z,77.10
2022-09-05T18:06:09.507Z,76.20
2022-09-05T18:11:27.225Z,78.50
2022-09-05T18:22:06.308Z,79.60
2022-09-05T18:28:03.798Z,79.20
2022-09-05T18:33:53.272Z,79.40
2022-09-05T18:38:08.153Z,80.20
2022-09-05T18:43:34.654Z,79.60
2022-09-05T18:48:55.544Z,78.90
2022-09-05T18:53:55.835Z,78.20
2022-09-05T18:59:24.227Z,78.70
2022-09-05T19:04:40.929Z,78.70
2022-09-05T19:10:10.835Z,79.10
2022-09-05T19:15:18.436Z,79.70
2022-09-05T19:20:46.316Z,80.40
2022-09-05T19:26:05.184Z,80.40
2022-09-05T19:36:54.344Z,80.80
2022-09-05T19:37:02.954Z,81.30
2022-09-05T19:47:34.073Z,82.40
2022-09-05T19:47:48.039Z,82.60
2022-09-05T19:52:18.414Z,82.70
2022-09-05T19:57:25.698Z,82.80
2022-09-05T20:02:38.109Z,83.90
2022-09-05T20:07:52.187Z,84.40
2022-09-05T20:12:57.860Z,84.90
2022-09-05T20:18:20.948Z,85.30
2022-09-05T20:23:28.858Z,85.30
2022-09-05T20:28:36.181Z,85.60
2022-09-05T20:33:51.795Z,85.70
2022-09-05T20:43:18.926Z,86.30
2022-09-05T20:44:21.040Z,86.70
2022-09-05T20:54:06.803Z,87.00
2022-09-05T20:54:42.251Z,88.10
2022-09-05T20:59:50.230Z,88.80
2022-09-05T21:05:21.140Z,89.60
2022-09-05T21:10:22.886Z,90.20
2022-09-05T21:15:53.341Z,90.50
2022-09-05T21:20:41.074Z,90.90
2022-09-05T21:25:58.494Z,91.30
2022-09-05T21:31:10.537Z,92.10
2022-09-05T21:36:15.297Z,92.20
2022-09-05T21:41:20.742Z,93.00
2022-09-05T21:47:43.100Z,93.70
2022-09-05T21:51:33.229Z,94.30
2022-09-05T21:59:16.403Z,95.10
2022-09-05T22:01:53.324Z,95.40
2022-09-05T22:06:59.254Z,96.10
2022-09-05T22:12:09.699Z,96.90
2022-09-05T22:17:11.689Z,97.50
2022-09-05T22:22:18.993Z,98.30
2022-09-05T22:27:26.400Z,99.10
2022-09-05T22:32:35.207Z,99.80
2022-09-05T22:37:40.388Z,99.90
2022-09-05T22:42:45.720Z,99.90
2022-09-05T22:47:51.144Z,99.90
2022-09-05T22:52:56.432Z,99.90
2022-09-05T22:58:01.826Z,99.90
2022-09-05T23:03:08.549Z,99.90
2022-09-05T23:08:14.465Z,99.90
2022-09-05T23:13:19.702Z,99.90
2022-09-05T23:18:25.117Z,99.90
2022-09-05T23:23:30.458Z,99.90
2022-09-05T23:28:39.445Z,99.90
2022-09-05T23:33:44.096Z,99.90
2022-09-05T23:38:49.977Z,99.90
2022-09-05T23:43:55.288Z,99.90
2022-09-05T23:49:00.515Z,99.90
2022-09-05T23:54:05.837Z,99.90
2022-09-05T23:59:12.188Z,99.90
